Time;durP1;ratioP1;P1;durP2;ratioP2;P2;SDS_P1;SDS_P2;PMS_P1;PMS_P2;Temp;Humidity;BMP_temperature;BMP_pressure;BME280_temperature;BME280_humidity;BME280_pressure;Samples;Min_cycle;Max_cycle;Signal;HPM_P1;HPM_P2
2022/03/14 00:01:50;;;;;;;14.65;8.38;;;;;;;;;;6280062;22;20006;-82
2022/03/14 00:04:17;;;;;;;12.57;7.80;;;;;;;;;;6278478;22;20439;-84
2022/03/14 00:06:47;;;;;;;16.10;8.40;;;;;;;;;;6251516;22;20011;-83
2022/03/14 00:09:13;;;;;;;12.93;7.63;;;;;;;;;;6252471;22;20007;-82
2022/03/14 00:11:39;;;;;;;13.63;7.65;;;;;;;;;;6279343;22;20003;-83
2022/03/14 00:14:08;;;;;;;13.02;8.85;;;;;;;;;;6279210;22;20383;-82
2022/03/14 00:16:41;;;;;;;14.45;8.40;;;;;;;;;;6251654;22;20325;-82
2022/03/14 00:19:08;;;;;;;13.43;8.52;;;;;;;;;;6279667;22;20552;-82
2022/03/14 00:21:45;;;;;;;13.32;8.20;;;;;;;;;;6252200;22;20007;-82
2022/03/14 00:24:14;;;;;;;14.48;8.13;;;;;;;;;;6278578;22;20002;-82
2022/03/14 00:26:40;;;;;;;12.20;8.10;;;;;;;;;;6278154;22;20392;-82
2022/03/14 00:29:07;;;;;;;14.30;8.52;;;;;;;;;;6278561;22;20000;-85
2022/03/14 00:31:33;;;;;;;14.65;8.57;;;;;;;;;;6278258;22;20027;-83
2022/03/14 00:33:59;;;;;;;13.00;7.95;;;;;;;;;;6279265;22;20075;-83
2022/03/14 00:36:25;;;;;;;10.98;8.00;;;;;;;;;;6278571;22;20000;-83
2022/03/14 00:38:52;;;;;;;13.25;7.78;;;;;;;;;;6251180;22;20030;-83
2022/03/14 00:41:18;;;;;;;12.07;8.15;;;;;;;;;;6251238;22;20004;-83
2022/03/14 00:43:45;;;;;;;13.73;8.15;;;;;;;;;;6251257;22;20010;-82
2022/03/14 00:46:11;;;;;;;12.60;7.63;;;;;;;;;;6251607;22;20029;-83
2022/03/14 00:48:37;;;;;;;11.75;7.60;;;;;;;;;;6279519;22;20341;-82
2022/03/14 00:51:05;;;;;;;12.43;8.40;;;;;;;;;;6251066;22;20008;-83
2022/03/14 00:53:31;;;;;;;13.10;7.97;;;;;;;;;;6277568;22;20023;-83
2022/03/14 00:55:58;;;;;;;15.35;9.65;;;;;;;;;;6251412;22;20022;-82
2022/03/14 00:58:26;;;;;;;12.27;6.80;;;;;;;;;;6251400;22;20079;-83
2022/03/14 01:00:52;;;;;;;14.73;7.82;;;;;;;;;;6278237;22;20479;-82
2022/03/14 01:03:18;;;;;;;11.15;7.38;;;;;;;;;;6278685;22;19999;-83
2022/03/14 01:05:44;;;;;;;11.25;7.35;;;;;;;;;;6278328;22;20008;-83
2022/03/14 01:08:11;;;;;;;11.13;7.38;;;;;;;;;;6250667;22;20004;-81
2022/03/14 01:10:37;;;;;;;12.45;8.05;;;;;;;;;;6277718;22;20086;-84
2022/03/14 01:13:04;;;;;;;14.13;8.32;;;;;;;;;;6251139;22;20059;-83
2022/03/14 01:15:32;;;;;;;11.70;7.93;;;;;;;;;;6251125;22;20053;-82
2022/03/14 01:17:58;;;;;;;13.60;8.05;;;;;;;;;;6277991;22;20372;-82
2022/03/14 01:20:25;;;;;;;12.50;8.30;;;;;;;;;;6249701;22;20241;-83
2022/03/14 01:22:54;;;;;;;14.20;8.15;;;;;;;;;;6251007;22;19996;-83
2022/03/14 01:25:20;;;;;;;12.60;8.20;;;;;;;;;;6278099;22;20393;-83
2022/03/14 01:27:46;;;;;;;11.85;8.63;;;;;;;;;;6278077;22;20000;-83
2022/03/14 01:30:14;;;;;;;12.27;8.30;;;;;;;;;;6251540;22;20011;-82
2022/03/14 01:32:40;;;;;;;15.75;8.38;;;;;;;;;;6250363;22;20004;-82
2022/03/14 01:35:07;;;;;;;13.15;8.88;;;;;;;;;;6250398;22;20002;-82
2022/03/14 01:37:33;;;;;;;17.23;9.50;;;;;;;;;;6277903;22;20006;-82
2022/03/14 01:39:59;;;;;;;13.63;8.27;;;;;;;;;;6277815;22;19998;-82
2022/03/14 01:42:25;;;;;;;15.02;9.27;;;;;;;;;;6277823;22;20031;-82
2022/03/14 01:44:51;;;;;;;16.25;9.30;;;;;;;;;;6278518;22;19999;-82
2022/03/14 01:47:17;;;;;;;11.73;8.70;;;;;;;;;;6277475;22;20074;-83
2022/03/14 01:49:44;;;;;;;15.73;10.35;;;;;;;;;;6277496;22;20561;-83
2022/03/14 01:52:11;;;;;;;13.82;8.55;;;;;;;;;;6278026;22;20383;-82
2022/03/14 01:54:38;;;;;;;13.70;9.82;;;;;;;;;;6278280;22;20004;-82
2022/03/14 01:57:05;;;;;;;16.58;10.90;;;;;;;;;;6250748;22;20497;-83
2022/03/14 01:59:32;;;;;;;16.15;10.35;;;;;;;;;;6278097;22;20011;-85
2022/03/14 02:01:58;;;;;;;15.15;10.35;;;;;;;;;;6279943;22;20059;-84
2022/03/14 02:04:24;;;;;;;15.75;10.40;;;;;;;;;;6253843;22;20079;-83
2022/03/14 02:06:53;;;;;;;17.17;10.63;;;;;;;;;;6282115;22;20453;-83
2022/03/14 02:09:19;;;;;;;17.65;10.60;;;;;;;;;;6280913;22;20000;-84
2022/03/14 02:11:52;;;;;;;15.13;9.90;;;;;;;;;;6280704;22;20458;-83
2022/03/14 02:14:18;;;;;;;16.50;10.02;;;;;;;;;;6254199;22;20007;-83
2022/03/14 02:16:44;;;;;;;15.93;10.15;;;;;;;;;;6254494;22;20012;-84
2022/03/14 02:19:10;;;;;;;13.93;8.50;;;;;;;;;;6281894;22;19996;-82
2022/03/14 02:21:38;;;;;;;13.93;8.43;;;;;;;;;;6281931;22;20382;-83
2022/03/14 02:24:04;;;;;;;12.85;8.73;;;;;;;;;;6254969;22;20011;-83
2022/03/14 02:26:30;;;;;;;12.48;8.00;;;;;;;;;;6254294;22;20000;-83
2022/03/14 02:28:56;;;;;;;12.63;7.57;;;;;;;;;;6254052;22;20063;-84
2022/03/14 02:31:24;;;;;;;14.80;8.85;;;;;;;;;;6253766;22;20007;-83
2022/03/14 02:33:50;;;;;;;13.27;7.97;;;;;;;;;;6253530;22;19999;-82
2022/03/14 02:36:16;;;;;;;16.38;8.82;;;;;;;;;;6254179;22;20000;-84
2022/03/14 02:38:43;;;;;;;14.35;8.75;;;;;;;;;;6253225;22;20052;-84
2022/03/14 02:41:10;;;;;;;12.88;8.20;;;;;;;;;;6253003;22;20004;-82
2022/03/14 02:43:36;;;;;;;13.95;8.80;;;;;;;;;;6253159;22;20026;-82
2022/03/14 02:46:03;;;;;;;16.10;9.48;;;;;;;;;;6280542;22;20026;-83
2022/03/14 02:48:30;;;;;;;13.93;8.40;;;;;;;;;;6252842;22;20003;-82
2022/03/14 02:50:56;;;;;;;12.95;8.27;;;;;;;;;;6279748;22;20332;-82
2022/03/14 02:53:22;;;;;;;13.65;8.48;;;;;;;;;;6252528;22;20004;-82
2022/03/14 02:55:49;;;;;;;12.80;8.30;;;;;;;;;;6252961;22;20019;-83
2022/03/14 02:58:15;;;;;;;12.23;8.02;;;;;;;;;;6280194;22;20000;-83
2022/03/14 03:00:42;;;;;;;15.85;8.57;;;;;;;;;;6252686;22;20102;-82
2022/03/14 03:03:10;;;;;;;14.35;8.02;;;;;;;;;;6252248;22;20454;-83
2022/03/14 03:05:43;;;;;;;11.60;7.68;;;;;;;;;;6280253;22;20008;-82
2022/03/14 03:08:09;;;;;;;13.05;8.30;;;;;;;;;;6279615;22;20261;-83
2022/03/14 03:10:35;;;;;;;14.18;8.52;;;;;;;;;;6279223;22;20077;-82
2022/03/14 03:13:01;;;;;;;14.95;9.15;;;;;;;;;;6279498;22;19999;-82
2022/03/14 03:15:28;;;;;;;16.35;9.20;;;;;;;;;;6251886;22;20067;-82
2022/03/14 03:17:54;;;;;;;12.73;8.35;;;;;;;;;;6279220;22;20530;-83
2022/03/14 03:20:20;;;;;;;14.35;8.57;;;;;;;;;;6251555;22;20082;-82
2022/03/14 03:22:46;;;;;;;14.43;9.20;;;;;;;;;;6252224;22;20000;-83
2022/03/14 03:25:13;;;;;;;17.00;9.30;;;;;;;;;;6250463;22;20443;-82
2022/03/14 03:27:39;;;;;;;15.25;9.30;;;;;;;;;;6279098;22;20031;-82
2022/03/14 03:30:07;;;;;;;13.68;8.55;;;;;;;;;;6279135;22;20339;-82
2022/03/14 03:32:34;;;;;;;15.63;9.57;;;;;;;;;;6251207;22;20087;-82
2022/03/14 03:35:00;;;;;;;16.33;9.68;;;;;;;;;;6279539;22;19996;-82
2022/03/14 03:37:26;;;;;;;15.27;9.20;;;;;;;;;;6251900;22;20008;-82
2022/03/14 03:39:55;;;;;;;14.77;9.48;;;;;;;;;;6278480;22;20320;-82
2022/03/14 03:42:21;;;;;;;15.60;9.55;;;;;;;;;;6251941;22;20004;-82
2022/03/14 03:44:47;;;;;;;14.85;9.43;;;;;;;;;;6280161;22;19999;-82
2022/03/14 03:47:13;;;;;;;16.60;10.25;;;;;;;;;;6279404;22;20026;-83
2022/03/14 03:49:39;;;;;;;17.50;9.80;;;;;;;;;;6251466;22;20008;-82
2022/03/14 03:52:07;;;;;;;16.00;9.65;;;;;;;;;;6251816;22;20015;-83
2022/03/14 03:54:33;;;;;;;17.20;10.30;;;;;;;;;;6278042;22;20052;-83
2022/03/14 03:56:59;;;;;;;16.40;9.88;;;;;;;;;;6279444;22;20000;-83
2022/03/14 03:59:25;;;;;;;18.70;11.25;;;;;;;;;;6251547;22;20443;-83
2022/03/14 04:01:52;;;;;;;15.90;10.05;;;;;;;;;;6252865;22;20011;-82
2022/03/14 04:04:18;;;;;;;16.40;10.02;;;;;;;;;;6252437;22;20015;-82
2022/03/14 04:06:45;;;;;;;16.70;9.38;;;;;;;;;;6279071;22;20027;-83
2022/03/14 04:09:11;;;;;;;16.08;10.35;;;;;;;;;;6279092;22;20000;-82
2022/03/14 04:11:41;;;;;;;15.50;9.98;;;;;;;;;;6250017;22;20011;-83
2022/03/14 04:14:09;;;;;;;19.73;11.90;;;;;;;;;;6278776;22;19999;-83
2022/03/14 04:16:36;;;;;;;15.38;10.75;;;;;;;;;;6276878;22;20022;-83
2022/03/14 04:19:02;;;;;;;18.02;10.80;;;;;;;;;;6251653;22;20000;-83
2022/03/14 04:21:28;;;;;;;15.02;9.77;;;;;;;;;;6279127;22;20049;-83
2022/03/14 04:23:55;;;;;;;15.23;9.93;;;;;;;;;;6250168;22;20012;-82
2022/03/14 04:26:21;;;;;;;16.83;11.45;;;;;;;;;;6279566;22;20007;-83
2022/03/14 04:28:47;;;;;;;16.42;10.60;;;;;;;;;;6280509;22;19996;-83
2022/03/14 04:31:13;;;;;;;15.23;9.45;;;;;;;;;;6253572;22;20003;-83
2022/03/14 04:33:39;;;;;;;18.50;11.45;;;;;;;;;;6281030;22;20004;-83
2022/03/14 04:36:06;;;;;;;17.52;10.05;;;;;;;;;;6253699;22;20023;-83
2022/03/14 04:38:32;;;;;;;15.07;10.38;;;;;;;;;;6252991;22;20016;-83
2022/03/14 04:40:58;;;;;;;17.20;10.68;;;;;;;;;;6280893;22;20027;-83
2022/03/14 04:43:24;;;;;;;14.18;9.93;;;;;;;;;;6280890;22;20451;-84
2022/03/14 04:45:51;;;;;;;17.90;10.18;;;;;;;;;;6280404;22;20011;-83
2022/03/14 04:48:17;;;;;;;16.45;9.90;;;;;;;;;;6253590;22;20000;-83
2022/03/14 04:50:43;;;;;;;15.52;9.68;;;;;;;;;;6253199;22;20004;-83
2022/03/14 04:53:10;;;;;;;14.13;9.93;;;;;;;;;;6252319;22;20427;-83
2022/03/14 04:55:36;;;;;;;17.38;9.75;;;;;;;;;;6252446;22;20049;-82
2022/03/14 04:58:03;;;;;;;16.30;9.38;;;;;;;;;;6280495;22;20496;-83
2022/03/14 05:00:29;;;;;;;17.75;10.00;;;;;;;;;;6252668;22;20020;-83
2022/03/14 05:03:02;;;;;;;15.88;10.15;;;;;;;;;;6252653;22;19999;-84
2022/03/14 05:05:29;;;;;;;14.10;8.85;;;;;;;;;;6279910;22;20436;-83
2022/03/14 05:07:55;;;;;;;13.55;7.68;;;;;;;;;;6280663;22;20462;-83
2022/03/14 05:10:21;;;;;;;12.73;8.57;;;;;;;;;;6280824;22;20052;-83
2022/03/14 05:12:48;;;;;;;17.98;10.13;;;;;;;;;;6254561;22;20094;-83
2022/03/14 05:15:17;;;;;;;13.82;8.98;;;;;;;;;;6259882;22;20007;-83
2022/03/14 05:17:47;;;;;;;14.30;9.38;;;;;;;;;;6256410;22;20006;-83
2022/03/14 05:20:14;;;;;;;16.23;10.32;;;;;;;;;;6253338;22;20035;-83
2022/03/14 05:22:51;;;;;;;14.88;9.57;;;;;;;;;;6252958;22;20016;-83
2022/03/14 05:25:17;;;;;;;14.13;8.40;;;;;;;;;;6280559;22;20338;-83
2022/03/14 05:27:43;;;;;;;16.33;8.90;;;;;;;;;;6253868;22;20011;-83
2022/03/14 05:30:10;;;;;;;14.88;9.20;;;;;;;;;;6279940;22;20083;-83
2022/03/14 05:32:36;;;;;;;16.08;9.15;;;;;;;;;;6252910;22;20072;-83
2022/03/14 05:35:03;;;;;;;15.75;9.93;;;;;;;;;;6280099;22;19996;-83
2022/03/14 05:37:29;;;;;;;17.10;10.52;;;;;;;;;;6252055;22;20007;-82
2022/03/14 05:39:55;;;;;;;12.85;9.25;;;;;;;;;;6252378;22;20011;-82
2022/03/14 05:42:21;;;;;;;16.08;10.70;;;;;;;;;;6252294;22;20071;-83
2022/03/14 05:44:47;;;;;;;15.48;9.43;;;;;;;;;;6253124;22;20003;-83
2022/03/14 05:47:13;;;;;;;15.77;10.52;;;;;;;;;;6251381;22;20008;-82
2022/03/14 05:49:39;;;;;;;16.90;11.18;;;;;;;;;;6281533;22;20027;-82
2022/03/14 05:52:06;;;;;;;16.63;10.88;;;;;;;;;;6252623;22;20007;-82
2022/03/14 05:54:34;;;;;;;16.40;10.25;;;;;;;;;;6252664;22;20307;-83
2022/03/14 05:57:00;;;;;;;15.52;9.98;;;;;;;;;;6281161;22;20010;-83
2022/03/14 05:59:26;;;;;;;17.10;10.75;;;;;;;;;;6280985;22;20327;-85
2022/03/14 06:01:52;;;;;;;15.18;10.13;;;;;;;;;;6282776;22;20003;-82
2022/03/14 06:04:18;;;;;;;17.27;10.27;;;;;;;;;;6281295;22;20075;-83
2022/03/14 06:06:45;;;;;;;17.08;11.60;;;;;;;;;;6255230;22;20010;-82
2022/03/14 06:09:11;;;;;;;16.45;9.77;;;;;;;;;;6281402;22;20317;-83
2022/03/14 06:11:38;;;;;;;17.50;10.50;;;;;;;;;;6281517;22;20382;-82
2022/03/14 06:14:05;;;;;;;17.45;10.68;;;;;;;;;;6254800;22;20003;-82
2022/03/14 06:16:31;;;;;;;16.73;10.43;;;;;;;;;;6281336;22;20127;-84
2022/03/14 06:22:01;;;;;;;16.85;10.52;;;;;;;;;;6281756;22;20050;-81
2022/03/14 06:24:27;;;;;;;15.82;10.90;;;;;;;;;;6281150;22;20004;-82
2022/03/14 06:26:53;;;;;;;20.95;11.05;;;;;;;;;;6281865;22;20328;-82
2022/03/14 06:29:19;;;;;;;16.85;10.68;;;;;;;;;;6280838;22;19996;-82
2022/03/14 06:31:45;;;;;;;17.88;10.75;;;;;;;;;;6253625;22;20008;-83
2022/03/14 06:37:14;;;;;;;19.10;10.50;;;;;;;;;;6280540;22;20158;-84
2022/03/14 06:39:40;;;;;;;17.05;12.10;;;;;;;;;;6280269;22;20003;-83
2022/03/14 06:42:09;;;;;;;20.20;11.13;;;;;;;;;;6280387;22;19996;-83
2022/03/14 06:44:38;;;;;;;16.58;10.93;;;;;;;;;;6252487;22;20003;-82
2022/03/14 06:47:04;;;;;;;17.17;9.93;;;;;;;;;;6253289;22;20003;-83
2022/03/14 06:49:30;;;;;;;16.90;11.60;;;;;;;;;;6253181;22;20000;-82
2022/03/14 06:51:56;;;;;;;21.20;11.43;;;;;;;;;;6253132;22;20014;-82
2022/03/14 06:54:23;;;;;;;20.58;13.82;;;;;;;;;;6253826;22;20000;-82
2022/03/14 06:56:49;;;;;;;21.92;11.85;;;;;;;;;;6281151;22;20388;-83
2022/03/14 06:59:15;;;;;;;17.75;12.45;;;;;;;;;;6280048;22;20428;-81
2022/03/14 07:01:42;;;;;;;18.70;12.57;;;;;;;;;;6280559;22;20059;-83
2022/03/14 07:04:09;;;;;;;18.30;11.85;;;;;;;;;;6280432;22;20022;-82
2022/03/14 07:06:35;;;;;;;15.80;10.55;;;;;;;;;;6253047;22;20023;-82
2022/03/14 07:09:01;;;;;;;15.45;10.27;;;;;;;;;;6252645;22;20003;-83
2022/03/14 07:11:27;;;;;;;17.27;11.65;;;;;;;;;;6253690;22;20106;-82
2022/03/14 07:13:53;;;;;;;18.95;11.15;;;;;;;;;;6281396;22;20028;-83
2022/03/14 07:16:20;;;;;;;17.95;11.32;;;;;;;;;;6253384;22;20007;-81
2022/03/14 07:18:46;;;;;;;18.55;10.73;;;;;;;;;;6281009;22;20026;-82
2022/03/14 07:21:12;;;;;;;18.58;10.43;;;;;;;;;;6253575;22;20011;-83
2022/03/14 07:23:38;;;;;;;15.25;11.00;;;;;;;;;;6280677;22;19999;-83
2022/03/14 07:26:04;;;;;;;16.45;11.27;;;;;;;;;;6280569;22;20566;-82
2022/03/14 07:28:30;;;;;;;17.05;10.90;;;;;;;;;;6279774;22;20071;-82
2022/03/14 07:30:57;;;;;;;17.08;10.88;;;;;;;;;;6253015;22;20034;-82
2022/03/14 07:33:23;;;;;;;17.40;11.63;;;;;;;;;;6280358;22;19999;-82
2022/03/14 07:35:49;;;;;;;16.85;11.63;;;;;;;;;;6253633;22;20020;-82
2022/03/14 07:38:15;;;;;;;19.70;11.23;;;;;;;;;;6280232;22;20102;-82
2022/03/14 07:40:42;;;;;;;17.98;11.20;;;;;;;;;;6280869;22;19995;-83
2022/03/14 07:43:09;;;;;;;18.83;11.15;;;;;;;;;;6253492;22;20030;-83
2022/03/14 07:45:35;;;;;;;16.63;11.27;;;;;;;;;;6280571;22;19999;-82
2022/03/14 07:48:01;;;;;;;16.63;11.60;;;;;;;;;;6280447;22;20003;-83
2022/03/14 07:50:27;;;;;;;16.05;10.80;;;;;;;;;;6280740;22;20010;-82
2022/03/14 07:52:57;;;;;;;16.20;10.40;;;;;;;;;;6252493;22;20281;-82
2022/03/14 07:55:23;;;;;;;15.55;10.85;;;;;;;;;;6253538;22;19999;-82
2022/03/14 07:57:49;;;;;;;15.15;11.20;;;;;;;;;;6280432;22;20026;-82
2022/03/14 08:00:18;;;;;;;15.52;11.02;;;;;;;;;;6280559;22;20039;-83
2022/03/14 08:02:45;;;;;;;16.70;10.90;;;;;;;;;;6279887;22;20010;-82
2022/03/14 08:05:14;;;;;;;14.57;10.48;;;;;;;;;;6253014;22;20067;-83
2022/03/14 08:07:45;;;;;;;13.18;9.15;;;;;;;;;;6252785;22;20011;-82
2022/03/14 08:10:12;;;;;;;16.60;9.65;;;;;;;;;;6280038;22;19999;-82
2022/03/14 08:12:51;;;;;;;14.45;9.95;;;;;;;;;;6252287;22;20032;-83
2022/03/14 08:15:30;;;;;;;13.55;10.00;;;;;;;;;;6280964;22;20023;-84
2022/03/14 08:17:58;;;;;;;14.07;10.70;;;;;;;;;;6282869;22;19996;-83
2022/03/14 08:20:26;;;;;;;11.82;8.73;;;;;;;;;;6281821;22;20057;-83
2022/03/14 08:22:53;;;;;;;12.85;8.23;;;;;;;;;;6253981;22;20004;-83
2022/03/14 08:25:19;;;;;;;14.40;9.90;;;;;;;;;;6280548;22;20083;-82
2022/03/14 08:27:46;;;;;;;15.25;9.15;;;;;;;;;;6255597;22;20027;-83
2022/03/14 08:30:12;;;;;;;13.43;9.10;;;;;;;;;;6282106;22;20288;-83
2022/03/14 08:32:42;;;;;;;16.52;9.80;;;;;;;;;;6253043;22;20440;-84
2022/03/14 08:35:09;;;;;;;13.18;9.10;;;;;;;;;;6280579;22;19992;-83
2022/03/14 08:37:42;;;;;;;14.15;10.18;;;;;;;;;;6280184;22;20494;-85
2022/03/14 08:40:08;;;;;;;;;;;;;;;;;;6279402;22;20003;-82
2022/03/14 08:42:34;;;;;;;12.95;9.13;;;;;;;;;;6281157;22;19907;-82
2022/03/14 08:45:00;;;;;;;13.07;8.70;;;;;;;;;;6281244;22;20411;-83
2022/03/14 08:47:26;;;;;;;15.23;10.07;;;;;;;;;;6254283;22;20014;-83
2022/03/14 08:49:52;;;;;;;12.13;8.82;;;;;;;;;;6282601;22;19999;-83
2022/03/14 08:52:19;;;;;;;16.55;9.88;;;;;;;;;;6283423;22;20052;-83
2022/03/14 08:54:45;;;;;;;14.57;9.32;;;;;;;;;;6280650;22;20074;-82
2022/03/14 08:57:11;;;;;;;14.32;9.02;;;;;;;;;;6282346;22;19999;-83
2022/03/14 08:59:38;;;;;;;13.48;8.88;;;;;;;;;;6281767;22;20012;-82
2022/03/14 09:02:04;;;;;;;17.48;9.60;;;;;;;;;;6254587;22;20063;-82
2022/03/14 09:04:30;;;;;;;12.90;8.45;;;;;;;;;;6254742;22;20112;-83
2022/03/14 09:06:56;;;;;;;14.52;9.65;;;;;;;;;;6254107;22;20007;-82
2022/03/14 09:09:22;;;;;;;11.55;8.07;;;;;;;;;;6279778;22;20427;-83
2022/03/14 09:11:48;;;;;;;12.55;9.00;;;;;;;;;;6280108;22;20003;-83
2022/03/14 09:14:14;;;;;;;15.82;8.85;;;;;;;;;;6252809;22;20025;-83
2022/03/14 09:16:40;;;;;;;15.05;9.43;;;;;;;;;;6280937;22;20000;-84
2022/03/14 09:19:06;;;;;;;12.77;8.13;;;;;;;;;;6279173;22;20340;-84
2022/03/14 09:21:34;;;;;;;15.27;9.57;;;;;;;;;;6252854;22;20007;-81
2022/03/14 09:24:01;;;;;;;12.43;9.75;;;;;;;;;;6279929;22;19996;-82
2022/03/14 09:26:27;;;;;;;12.38;9.93;;;;;;;;;;6253865;22;20004;-81
2022/03/14 09:28:53;;;;;;;13.73;9.65;;;;;;;;;;6280164;22;20019;-84
2022/03/14 09:31:19;;;;;;;13.70;8.70;;;;;;;;;;6252242;22;20002;-81
2022/03/14 09:33:45;;;;;;;12.90;9.15;;;;;;;;;;6253346;22;20447;-80
2022/03/14 09:36:11;;;;;;;14.13;8.93;;;;;;;;;;6254015;22;20071;-83
2022/03/14 09:38:37;;;;;;;12.38;8.43;;;;;;;;;;6282338;22;20463;-82
2022/03/14 09:41:04;;;;;;;12.25;7.65;;;;;;;;;;6283390;22;19996;-82
2022/03/14 09:43:31;;;;;;;14.05;8.07;;;;;;;;;;6254349;22;20004;-81
2022/03/14 09:45:59;;;;;;;14.73;8.45;;;;;;;;;;6280789;22;20011;-83
2022/03/14 09:48:25;;;;;;;10.95;8.20;;;;;;;;;;6252213;22;20033;-82
2022/03/14 09:50:53;;;;;;;11.15;7.90;;;;;;;;;;6280315;22;20006;-82
2022/03/14 09:53:19;;;;;;;12.15;9.38;;;;;;;;;;6278697;22;20027;-81
2022/03/14 09:55:47;;;;;;;12.00;7.78;;;;;;;;;;6251999;22;19995;-82
2022/03/14 09:58:13;;;;;;;13.20;9.25;;;;;;;;;;6278427;22;20026;-82
2022/03/14 10:00:40;;;;;;;11.13;8.15;;;;;;;;;;6279098;22;20031;-85
2022/03/14 10:03:06;;;;;;;11.88;8.20;;;;;;;;;;6254756;22;20411;-82
2022/03/14 10:05:32;;;;;;;11.05;8.80;;;;;;;;;;6254246;22;20004;-83
2022/03/14 10:08:00;;;;;;;14.68;7.97;;;;;;;;;;6281097;22;20049;-82
2022/03/14 10:10:26;;;;;;;12.73;9.73;;;;;;;;;;6281412;22;20006;-82
2022/03/14 10:12:57;;;;;;;11.70;8.60;;;;;;;;;;6281208;22;20133;-82
2022/03/14 10:15:32;;;;;;;10.68;7.65;;;;;;;;;;6253684;22;20034;-82
2022/03/14 10:17:59;;;;;;;10.73;7.57;;;;;;;;;;6253915;22;20011;-82
2022/03/14 10:20:28;;;;;;;11.75;8.15;;;;;;;;;;6252278;22;20004;-82
2022/03/14 10:22:59;;;;;;;10.82;7.80;;;;;;;;;;6252595;22;20436;-83
2022/03/14 10:25:25;;;;;;;13.70;9.40;;;;;;;;;;6282388;22;20443;-81
2022/03/14 10:27:57;;;;;;;15.00;9.73;;;;;;;;;;6256008;22;20014;-82
2022/03/14 10:30:23;;;;;;;11.48;7.90;;;;;;;;;;6255335;22;20004;-84
2022/03/14 10:32:49;;;;;;;13.23;9.55;;;;;;;;;;6252922;22;20011;-84
2022/03/14 10:35:22;;;;;;;10.60;7.78;;;;;;;;;;6281280;22;20030;-84
2022/03/14 10:37:48;;;;;;;;;;;;;;;;;;6284516;22;19996;-83
2022/03/14 10:40:14;;;;;;;17.00;9.05;;;;;;;;;;6281606;22;19899;-83
2022/03/14 10:42:41;;;;;;;12.88;7.75;;;;;;;;;;6283798;22;20000;-85
2022/03/14 10:45:10;;;;;;;10.80;7.85;;;;;;;;;;6283260;22;20437;-84
2022/03/14 10:47:37;;;;;;;12.10;8.15;;;;;;;;;;6283824;22;20004;-84
2022/03/14 10:50:03;;;;;;;12.15;8.52;;;;;;;;;;6255322;22;20011;-84
2022/03/14 10:52:29;;;;;;;14.45;8.43;;;;;;;;;;6283112;22;20000;-84
2022/03/14 10:54:56;;;;;;;11.20;8.13;;;;;;;;;;6255169;22;20011;-84
2022/03/14 10:57:25;;;;;;;11.10;8.45;;;;;;;;;;6281979;22;20382;-85
2022/03/14 10:59:52;;;;;;;11.18;8.43;;;;;;;;;;6280334;22;20014;-83
2022/03/14 11:02:23;;;;;;;12.95;8.93;;;;;;;;;;6280485;22;20003;-83
2022/03/14 11:04:53;;;;;;;11.32;8.38;;;;;;;;;;6253094;22;20003;-84
2022/03/14 11:07:31;;;;;;;11.68;8.63;;;;;;;;;;6281027;22;20014;-84
2022/03/14 11:09:58;;;;;;;13.52;9.40;;;;;;;;;;6281094;22;20000;-84
2022/03/14 11:12:24;;;;;;;14.30;8.63;;;;;;;;;;6281286;22;20000;-85
2022/03/14 11:14:54;;;;;;;12.20;9.18;;;;;;;;;;6254230;22;20004;-84
2022/03/14 11:17:21;;;;;;;12.70;9.65;;;;;;;;;;6253320;22;20000;-84
2022/03/14 11:19:47;;;;;;;15.32;10.88;;;;;;;;;;6281362;22;19996;-84
2022/03/14 11:22:14;;;;;;;14.35;10.75;;;;;;;;;;6280656;22;19999;-85
2022/03/14 11:24:45;;;;;;;14.90;9.82;;;;;;;;;;6280952;22;19996;-84
2022/03/14 11:27:14;;;;;;;12.95;9.38;;;;;;;;;;6282059;22;20003;-84
2022/03/14 11:29:42;;;;;;;13.23;10.02;;;;;;;;;;6253765;22;20010;-83
2022/03/14 11:32:09;;;;;;;13.95;10.30;;;;;;;;;;6279038;22;20401;-82
2022/03/14 11:34:35;;;;;;;14.25;10.55;;;;;;;;;;6279395;22;20027;-83
2022/03/14 11:37:02;;;;;;;13.65;9.90;;;;;;;;;;6253317;22;20432;-85
2022/03/14 11:39:31;;;;;;;13.15;10.20;;;;;;;;;;6280440;22;20015;-85
2022/03/14 11:41:59;;;;;;;15.63;11.23;;;;;;;;;;6281033;22;20006;-86
2022/03/14 11:44:25;;;;;;;14.25;10.30;;;;;;;;;;6280852;22;20371;-84
2022/03/14 11:46:54;;;;;;;13.27;10.40;;;;;;;;;;6253467;22;20004;-84
2022/03/14 11:49:20;;;;;;;14.18;10.63;;;;;;;;;;6281541;22;20007;-85
2022/03/14 11:51:48;;;;;;;13.85;10.05;;;;;;;;;;6281100;22;20328;-83
2022/03/14 11:54:14;;;;;;;17.02;10.43;;;;;;;;;;6252284;22;20486;-84
2022/03/14 11:56:54;;;;;;;15.93;11.02;;;;;;;;;;6254157;22;19996;-85
2022/03/14 11:59:30;;;;;;;14.57;10.35;;;;;;;;;;6280205;22;20347;-85
2022/03/14 12:01:58;;;;;;;13.55;11.20;;;;;;;;;;6254662;22;20086;-84
2022/03/14 12:04:50;;;;;;;16.25;11.27;;;;;;;;;;6283144;22;20026;-85
2022/03/14 12:07:17;;;;;;;14.07;11.27;;;;;;;;;;6276582;22;20027;-85
2022/03/14 12:09:45;;;;;;;14.35;11.57;;;;;;;;;;6256708;22;20238;-85
2022/03/14 12:12:20;;;;;;;14.18;10.88;;;;;;;;;;6255090;22;20081;-85
2022/03/14 12:14:56;;;;;;;14.77;11.02;;;;;;;;;;6282746;22;19995;-85
2022/03/14 12:20:33;;;;;;;15.07;10.63;;;;;;;;;;6282497;22;20349;-85
2022/03/14 12:23:19;;;;;;;15.45;10.48;;;;;;;;;;6281363;22;20004;-85
2022/03/14 12:25:45;;;;;;;17.17;11.50;;;;;;;;;;6254148;22;20008;-85
2022/03/14 12:31:16;;;;;;;15.60;11.18;;;;;;;;;;6282189;22;20165;-84
2022/03/14 12:33:51;;;;;;;14.60;11.45;;;;;;;;;;6281316;22;20047;-84
2022/03/14 12:42:25;;;;;;;14.77;10.27;;;;;;;;;;6284576;22;20014;-83
2022/03/14 12:45:10;;;;;;;13.25;9.20;;;;;;;;;;6255687;22;20027;-84
2022/03/14 12:47:41;;;;;;;13.27;9.80;;;;;;;;;;6283063;22;20022;-83
2022/03/14 12:50:07;;;;;;;11.15;9.05;;;;;;;;;;6281249;22;20023;-85
2022/03/14 12:52:53;;;;;;;11.77;8.57;;;;;;;;;;6280694;22;20031;-85
2022/03/14 12:55:19;;;;;;;12.65;8.55;;;;;;;;;;6280265;22;20002;-83
2022/03/14 12:57:52;;;;;;;12.32;9.38;;;;;;;;;;6280045;22;20004;-83
2022/03/14 13:00:18;;;;;;;14.77;9.93;;;;;;;;;;6278943;22;20019;-83
2022/03/14 13:02:44;;;;;;;14.40;10.05;;;;;;;;;;6281085;22;20368;-82
2022/03/14 13:05:10;;;;;;;16.13;9.43;;;;;;;;;;6279451;22;20004;-83
2022/03/14 13:07:37;;;;;;;15.48;9.57;;;;;;;;;;6280101;22;20075;-83
2022/03/14 13:10:03;;;;;;;13.73;9.63;;;;;;;;;;6279887;22;20495;-82
2022/03/14 13:12:32;;;;;;;14.15;10.10;;;;;;;;;;6280967;22;20371;-82
2022/03/14 13:15:08;;;;;;;15.93;10.52;;;;;;;;;;6281716;22;19996;-82
2022/03/14 13:17:54;;;;;;;13.07;9.75;;;;;;;;;;6282528;22;20069;-82
2022/03/14 13:20:25;;;;;;;14.27;9.98;;;;;;;;;;6281820;22;20481;-83
2022/03/14 13:22:51;;;;;;;13.20;9.80;;;;;;;;;;6254592;22;20003;-83
2022/03/14 13:25:30;;;;;;;14.77;10.07;;;;;;;;;;6280734;22;20058;-82
2022/03/14 13:27:58;;;;;;;14.52;9.73;;;;;;;;;;6252021;22;20029;-82
2022/03/14 13:30:25;;;;;;;15.10;10.13;;;;;;;;;;6278641;22;20064;-83
2022/03/14 13:32:53;;;;;;;16.55;11.13;;;;;;;;;;6252791;22;20027;-82
2022/03/14 13:35:19;;;;;;;15.40;10.32;;;;;;;;;;6279171;22;20373;-82
2022/03/14 13:37:45;;;;;;;17.13;10.63;;;;;;;;;;6251944;22;20019;-83
2022/03/14 13:40:16;;;;;;;12.80;9.95;;;;;;;;;;6279012;22;20002;-83
2022/03/14 13:42:42;;;;;;;15.15;10.25;;;;;;;;;;6251451;22;20008;-83
2022/03/14 13:45:09;;;;;;;13.23;10.05;;;;;;;;;;6279792;22;20007;-83
2022/03/14 13:47:35;;;;;;;14.82;9.05;;;;;;;;;;6255428;22;20242;-82
2022/03/14 13:50:01;;;;;;;15.60;9.75;;;;;;;;;;6282628;22;19996;-84
2022/03/14 13:52:28;;;;;;;18.25;10.65;;;;;;;;;;6279344;22;20004;-84
2022/03/14 13:54:54;;;;;;;13.35;9.90;;;;;;;;;;6254048;22;20080;-83
2022/03/14 13:57:24;;;;;;;13.77;9.88;;;;;;;;;;6252102;22;20336;-85
2022/03/14 13:59:54;;;;;;;13.77;10.00;;;;;;;;;;6279789;22;20075;-84
2022/03/14 14:02:38;;;;;;;13.90;9.63;;;;;;;;;;6253193;22;20029;-82
2022/03/14 14:05:12;;;;;;;14.82;9.35;;;;;;;;;;6279641;22;20416;-83
2022/03/14 14:08:01;;;;;;;15.15;9.85;;;;;;;;;;6279166;22;19996;-83
2022/03/14 14:13:53;;;;;;;14.85;10.48;;;;;;;;;;6285350;22;20034;-85
2022/03/14 14:16:20;;;;;;;13.43;9.98;;;;;;;;;;6257816;22;20030;-84
2022/03/14 14:19:04;;;;;;;14.10;10.65;;;;;;;;;;6284064;22;20003;-85
2022/03/14 14:21:30;;;;;;;18.17;11.68;;;;;;;;;;6284391;22;20000;-83
2022/03/14 14:23:56;;;;;;;21.17;12.30;;;;;;;;;;6256843;22;20017;-84
2022/03/14 14:26:32;;;;;;;13.80;9.82;;;;;;;;;;6285109;22;20463;-83
2022/03/14 14:28:58;;;;;;;14.10;9.80;;;;;;;;;;6257752;22;20003;-83
2022/03/14 14:31:25;;;;;;;19.17;11.02;;;;;;;;;;6285286;22;20047;-82
2022/03/14 14:33:51;;;;;;;14.48;10.57;;;;;;;;;;6283915;22;20004;-86
2022/03/14 14:36:18;;;;;;;14.05;10.43;;;;;;;;;;6285018;22;20358;-83
2022/03/14 14:38:45;;;;;;;14.68;9.85;;;;;;;;;;6257316;22;20026;-83
2022/03/14 14:41:13;;;;;;;14.23;10.18;;;;;;;;;;6256506;22;20007;-85
2022/03/14 14:43:41;;;;;;;15.23;10.18;;;;;;;;;;6285433;22;20029;-85
2022/03/14 14:46:07;;;;;;;13.70;10.30;;;;;;;;;;6284252;22;20035;-86
2022/03/14 14:48:34;;;;;;;13.95;10.23;;;;;;;;;;6285414;22;20014;-83
2022/03/14 14:51:02;;;;;;;14.77;9.32;;;;;;;;;;6284226;22;19999;-84